createdAt,value
2017-08-14T00:01:30.975Z,16.51
2017-08-14T00:03:58.388Z,16.54
2017-08-14T00:06:25.783Z,16.53
2017-08-14T00:08:53.194Z,16.51
2017-08-14T00:11:20.591Z,16.47
2017-08-14T00:13:47.998Z,16.44
2017-08-14T00:16:15.423Z,16.41
2017-08-14T00:18:42.825Z,16.36
2017-08-14T00:21:10.218Z,16.42
2017-08-14T00:23:37.639Z,16.41
2017-08-14T00:26:05.057Z,16.39
2017-08-14T00:28:32.451Z,16.33
2017-08-14T00:30:59.876Z,16.27
2017-08-14T00:33:27.269Z,16.18
2017-08-14T00:35:54.671Z,16.11
2017-08-14T00:38:22.095Z,16.03
2017-08-14T00:40:49.496Z,16.00
2017-08-14T00:43:16.899Z,15.99
2017-08-14T00:45:44.308Z,15.96
2017-08-14T00:48:11.706Z,15.92
2017-08-14T00:50:39.106Z,15.84
2017-08-14T00:53:06.523Z,15.82
2017-08-14T00:55:33.919Z,15.78
2017-08-14T00:58:01.322Z,15.74
2017-08-14T01:00:28.751Z,15.76
2017-08-14T01:02:56.147Z,15.78
2017-08-14T01:05:23.551Z,15.67
2017-08-14T01:07:51.183Z,15.56
2017-08-14T01:10:18.580Z,15.52
2017-08-14T01:12:45.975Z,15.43
2017-08-14T01:15:13.383Z,15.39
2017-08-14T01:17:40.779Z,15.36
2017-08-14T01:20:08.175Z,15.33
2017-08-14T01:22:35.599Z,15.29
2017-08-14T01:25:02.995Z,15.23
2017-08-14T01:27:30.394Z,15.24
2017-08-14T01:29:57.817Z,15.30
2017-08-14T01:32:25.207Z,15.21
2017-08-14T01:34:52.607Z,15.16
2017-08-14T01:37:20.014Z,15.14
2017-08-14T01:39:47.410Z,15.09
2017-08-14T01:42:14.811Z,15.07
2017-08-14T01:44:42.223Z,15.08
2017-08-14T01:47:09.624Z,15.05
2017-08-14T01:49:37.024Z,15.04
2017-08-14T01:52:04.438Z,15.00
2017-08-14T01:54:31.834Z,14.97
2017-08-14T01:56:59.239Z,14.94
2017-08-14T01:59:26.647Z,14.93
2017-08-14T02:01:54.056Z,14.90
2017-08-14T02:04:21.446Z,14.89
2017-08-14T02:06:48.868Z,14.87
2017-08-14T02:09:16.268Z,14.83
2017-08-14T02:11:43.670Z,14.79
2017-08-14T02:14:11.081Z,14.78
2017-08-14T02:16:38.487Z,14.78
2017-08-14T02:19:05.882Z,14.77
2017-08-14T02:21:33.296Z,14.75
2017-08-14T02:24:00.707Z,14.72
2017-08-14T02:26:28.107Z,14.68
2017-08-14T02:28:55.523Z,14.68
2017-08-14T02:31:22.920Z,14.65
2017-08-14T02:33:50.320Z,14.63
2017-08-14T02:36:17.735Z,14.63
2017-08-14T02:38:45.139Z,14.64
2017-08-14T02:41:12.539Z,14.62
2017-08-14T02:43:39.995Z,14.62
2017-08-14T02:46:07.392Z,14.61
2017-08-14T02:48:34.802Z,14.59
2017-08-14T02:51:02.219Z,14.55
2017-08-14T02:53:29.624Z,14.55
2017-08-14T02:55:57.018Z,14.55
2017-08-14T02:58:24.424Z,14.57
2017-08-14T03:00:51.819Z,14.56
2017-08-14T03:03:19.229Z,14.54
2017-08-14T03:05:46.643Z,14.51
2017-08-14T03:08:14.039Z,14.53
2017-08-14T03:10:41.435Z,14.52
2017-08-14T03:13:08.859Z,14.50
2017-08-14T03:15:36.260Z,14.51
2017-08-14T03:18:03.651Z,14.49
2017-08-14T03:20:31.076Z,14.46
2017-08-14T03:22:58.471Z,14.45
2017-08-14T03:25:25.874Z,14.43
2017-08-14T03:27:53.291Z,14.42
2017-08-14T03:30:20.697Z,14.44
2017-08-14T03:32:48.098Z,14.43
2017-08-14T03:35:15.530Z,14.46
2017-08-14T03:37:42.931Z,14.44
2017-08-14T03:40:10.327Z,14.42
2017-08-14T03:42:37.924Z,14.39
2017-08-14T03:45:05.319Z,14.39
2017-08-14T03:47:32.719Z,14.38
2017-08-14T03:50:00.126Z,14.37
2017-08-14T03:52:27.522Z,14.47
2017-08-14T03:54:54.919Z,14.50
2017-08-14T03:57:22.345Z,14.44
2017-08-14T03:59:49.741Z,14.37
2017-08-14T04:02:17.139Z,14.31
2017-08-14T04:04:44.551Z,14.27
2017-08-14T04:07:11.955Z,14.28
2017-08-14T04:09:39.354Z,14.22
2017-08-14T04:12:06.766Z,14.23
2017-08-14T04:14:34.163Z,14.22
2017-08-14T04:17:01.564Z,14.19
2017-08-14T04:19:28.984Z,14.19
2017-08-14T04:21:56.382Z,14.14
2017-08-14T04:24:23.779Z,14.12
2017-08-14T04:26:51.203Z,14.09
2017-08-14T04:29:18.604Z,14.13
2017-08-14T04:31:46.003Z,14.21
2017-08-14T04:34:13.420Z,14.26
2017-08-14T04:36:40.817Z,14.30
2017-08-14T04:39:08.224Z,14.27
2017-08-14T04:41:35.655Z,14.28
2017-08-14T04:44:03.062Z,14.27
2017-08-14T04:46:30.463Z,14.27
2017-08-14T04:48:57.885Z,14.41
2017-08-14T04:51:25.279Z,14.48
2017-08-14T04:53:52.679Z,14.41
2017-08-14T04:56:20.092Z,14.42
2017-08-14T04:58:47.486Z,14.40
2017-08-14T05:01:14.887Z,14.40
2017-08-14T05:03:42.299Z,14.41
2017-08-14T05:06:09.691Z,14.46
2017-08-14T05:08:37.103Z,14.52
2017-08-14T05:11:04.563Z,14.63
2017-08-14T05:13:31.952Z,14.67
2017-08-14T05:15:59.364Z,14.68
2017-08-14T05:18:26.764Z,14.66
2017-08-14T05:20:54.178Z,14.64
2017-08-14T05:23:21.572Z,14.65
2017-08-14T05:25:48.971Z,14.65
2017-08-14T05:28:16.387Z,14.63
2017-08-14T05:30:43.782Z,14.64
2017-08-14T05:33:11.196Z,14.67
2017-08-14T05:35:38.598Z,14.71
2017-08-14T05:38:05.999Z,14.74
2017-08-14T05:40:33.395Z,14.77
2017-08-14T05:43:00.804Z,14.81
2017-08-14T05:45:28.200Z,14.84
2017-08-14T05:47:55.591Z,14.89
2017-08-14T05:50:23.002Z,14.93
2017-08-14T05:52:50.399Z,14.97
2017-08-14T05:55:17.815Z,15.01
2017-08-14T05:57:45.215Z,15.07
2017-08-14T06:00:12.611Z,15.15
2017-08-14T06:02:40.019Z,15.25
2017-08-14T06:05:07.419Z,15.32
2017-08-14T06:07:34.852Z,15.36
2017-08-14T06:10:02.228Z,15.50
2017-08-14T06:12:29.627Z,15.59
2017-08-14T06:14:57.034Z,15.69
2017-08-14T06:17:24.438Z,15.76
2017-08-14T06:19:51.863Z,15.76
2017-08-14T06:22:19.264Z,15.95
2017-08-14T06:24:46.674Z,16.02
2017-08-14T06:27:14.076Z,16.08
2017-08-14T06:29:41.476Z,16.12
2017-08-14T06:32:08.894Z,16.22
2017-08-14T06:34:36.300Z,16.24
2017-08-14T06:37:03.698Z,16.28
2017-08-14T06:39:31.125Z,16.42
2017-08-14T06:41:58.529Z,16.57
2017-08-14T06:44:25.948Z,16.58
2017-08-14T06:46:53.343Z,16.66
2017-08-14T06:49:20.746Z,16.68
2017-08-14T06:51:48.155Z,16.82
2017-08-14T06:54:15.550Z,16.89
2017-08-14T06:56:42.978Z,17.09
2017-08-14T06:59:10.385Z,17.21
2017-08-14T07:01:37.788Z,17.37
2017-08-14T07:04:05.194Z,17.45
2017-08-14T07:06:32.592Z,17.55
2017-08-14T07:09:00.002Z,17.59
2017-08-14T07:11:27.403Z,17.63
2017-08-14T07:13:54.829Z,17.66
2017-08-14T07:16:22.243Z,17.76
2017-08-14T07:18:49.638Z,17.78
2017-08-14T07:21:17.051Z,17.89
2017-08-14T07:23:44.455Z,18.03
2017-08-14T07:26:11.847Z,18.17
2017-08-14T07:28:39.259Z,18.31
2017-08-14T07:31:06.667Z,18.40
2017-08-14T07:33:34.087Z,18.47
2017-08-14T07:36:01.488Z,18.52
2017-08-14T07:38:28.887Z,18.52
2017-08-14T07:40:56.294Z,18.68
2017-08-14T07:43:23.703Z,18.64
2017-08-14T07:45:51.143Z,18.74
2017-08-14T07:48:18.539Z,18.80
2017-08-14T07:50:45.934Z,18.85
2017-08-14T07:53:13.342Z,18.94
2017-08-14T07:55:40.731Z,19.01
2017-08-14T07:58:08.143Z,19.07
2017-08-14T08:00:35.539Z,19.18
2017-08-14T08:03:02.931Z,19.23
2017-08-14T08:05:30.335Z,19.32
2017-08-14T08:07:57.732Z,19.34
2017-08-14T08:10:25.160Z,19.42
2017-08-14T08:12:52.559Z,19.57
2017-08-14T08:15:19.954Z,19.65
2017-08-14T08:17:47.368Z,19.73
2017-08-14T08:20:14.775Z,19.78
2017-08-14T08:22:42.197Z,19.91
2017-08-14T08:25:09.590Z,20.06
2017-08-14T08:27:36.987Z,20.13
2017-08-14T08:30:04.387Z,20.18
2017-08-14T08:32:31.779Z,20.29
2017-08-14T08:34:59.183Z,20.38
2017-08-14T08:37:26.579Z,20.47
2017-08-14T08:39:53.972Z,20.65
2017-08-14T08:42:21.374Z,20.76
2017-08-14T08:44:48.771Z,20.91
2017-08-14T08:47:16.199Z,21.08
2017-08-14T08:49:43.590Z,21.14
2017-08-14T08:52:11.000Z,21.26
2017-08-14T08:54:38.410Z,21.45
2017-08-14T08:57:05.799Z,21.63
2017-08-14T08:59:33.215Z,21.82
2017-08-14T09:02:00.620Z,21.99
2017-08-14T09:04:28.012Z,22.19
2017-08-14T09:06:55.410Z,22.32
2017-08-14T09:09:22.803Z,22.46
2017-08-14T09:11:50.217Z,22.69
2017-08-14T09:14:17.607Z,22.90
2017-08-14T09:16:44.999Z,23.11
2017-08-14T09:19:12.417Z,23.36
2017-08-14T09:21:39.819Z,23.56
2017-08-14T09:24:07.232Z,23.82
2017-08-14T09:26:34.624Z,23.98
2017-08-14T09:29:02.017Z,24.24
2017-08-14T09:31:29.415Z,24.44
2017-08-14T09:33:56.807Z,24.68
2017-08-14T09:36:24.215Z,24.69
2017-08-14T09:38:51.617Z,24.80
2017-08-14T09:41:19.004Z,25.12
2017-08-14T09:43:46.415Z,25.54
2017-08-14T09:46:13.827Z,25.96
2017-08-14T09:48:41.231Z,26.42
2017-08-14T09:51:08.623Z,26.74
2017-08-14T09:53:36.016Z,27.15
2017-08-14T09:56:03.420Z,27.17
2017-08-14T09:58:30.807Z,26.99
2017-08-14T10:00:58.228Z,27.06
2017-08-14T10:03:25.624Z,27.13
2017-08-14T10:05:53.016Z,27.51
2017-08-14T10:08:20.728Z,27.38
2017-08-14T10:10:48.136Z,27.30
2017-08-14T10:13:15.539Z,27.54
2017-08-14T10:15:42.927Z,28.03
2017-08-14T10:18:10.318Z,28.51
2017-08-14T10:20:37.718Z,28.87
2017-08-14T10:23:05.108Z,29.00
2017-08-14T10:25:32.511Z,28.75
2017-08-14T10:27:59.915Z,28.86
2017-08-14T10:30:27.311Z,28.79
2017-08-14T10:32:54.707Z,28.43
2017-08-14T10:35:22.101Z,28.80
2017-08-14T10:37:49.511Z,28.97
2017-08-14T10:40:16.903Z,29.52
2017-08-14T10:42:44.297Z,29.87
2017-08-14T10:45:11.695Z,30.27
2017-08-14T10:47:39.095Z,30.51
2017-08-14T10:50:06.506Z,30.94
2017-08-14T10:52:33.896Z,31.27
2017-08-14T10:55:01.296Z,31.13
2017-08-14T10:57:28.695Z,31.42
2017-08-14T10:59:56.086Z,31.25
2017-08-14T11:02:23.495Z,31.46
2017-08-14T11:04:50.887Z,31.43
2017-08-14T11:07:18.288Z,31.26
2017-08-14T11:09:45.678Z,31.44
2017-08-14T11:12:13.076Z,31.70
2017-08-14T11:14:40.483Z,31.45
2017-08-14T11:17:07.874Z,30.97
2017-08-14T11:19:35.275Z,30.75
2017-08-14T11:22:02.688Z,30.50
2017-08-14T11:24:30.075Z,30.74
2017-08-14T11:26:57.491Z,31.05
2017-08-14T11:29:24.894Z,31.44
2017-08-14T11:31:52.315Z,31.99
2017-08-14T11:34:19.711Z,32.11
2017-08-14T11:36:47.115Z,32.06
2017-08-14T11:39:14.523Z,31.79
2017-08-14T11:41:41.934Z,31.77
2017-08-14T11:44:09.326Z,32.15
2017-08-14T11:46:36.740Z,32.26
2017-08-14T11:49:04.137Z,31.99
2017-08-14T11:51:31.569Z,32.03
2017-08-14T11:53:58.964Z,32.14
2017-08-14T11:56:26.356Z,32.47
2017-08-14T11:58:53.755Z,32.69
2017-08-14T12:01:21.151Z,32.28
2017-08-14T12:03:48.567Z,32.36
2017-08-14T12:06:15.954Z,32.68
2017-08-14T12:08:43.348Z,32.37
2017-08-14T12:11:10.743Z,32.01
2017-08-14T12:13:38.132Z,31.76
2017-08-14T12:16:05.536Z,31.89
2017-08-14T12:18:32.933Z,31.84
2017-08-14T12:21:00.324Z,31.51
2017-08-14T12:23:27.728Z,31.45
2017-08-14T12:25:55.127Z,31.58
2017-08-14T12:28:22.541Z,31.63
2017-08-14T12:30:49.928Z,31.65
2017-08-14T12:33:18.176Z,31.45
2017-08-14T12:35:45.572Z,31.11
2017-08-14T12:38:12.959Z,30.32
2017-08-14T12:40:40.391Z,30.49
2017-08-14T12:43:07.788Z,31.25
2017-08-14T12:45:35.503Z,31.41
2017-08-14T12:48:02.915Z,31.94
2017-08-14T12:50:30.303Z,32.26
2017-08-14T12:52:57.711Z,32.25
2017-08-14T12:55:25.108Z,32.15
2017-08-14T12:57:52.498Z,31.93
2017-08-14T13:00:19.900Z,31.63
2017-08-14T13:02:47.296Z,31.43
2017-08-14T13:05:14.723Z,31.30
2017-08-14T13:07:42.110Z,31.23
2017-08-14T13:10:09.501Z,31.41
2017-08-14T13:12:36.899Z,31.52
2017-08-14T13:15:04.299Z,31.75
2017-08-14T13:17:31.698Z,31.65
2017-08-14T13:19:59.094Z,31.40
2017-08-14T13:22:26.486Z,30.83
2017-08-14T13:24:53.891Z,30.80
2017-08-14T13:27:21.295Z,31.12
2017-08-14T13:29:48.702Z,31.08
2017-08-14T13:32:16.103Z,30.84
2017-08-14T13:34:43.507Z,30.60
2017-08-14T13:37:10.910Z,30.46
2017-08-14T13:39:38.312Z,30.58
2017-08-14T13:42:05.705Z,30.84
2017-08-14T13:44:33.103Z,31.15
2017-08-14T13:47:00.499Z,31.40
2017-08-14T13:49:27.892Z,31.49
2017-08-14T13:51:55.290Z,31.53
2017-08-14T13:54:22.683Z,31.54
2017-08-14T13:56:50.092Z,31.69
2017-08-14T13:59:17.487Z,31.48
2017-08-14T14:01:44.892Z,31.16
2017-08-14T14:04:12.291Z,30.91
2017-08-14T14:06:39.686Z,31.06
2017-08-14T14:09:07.103Z,31.16
2017-08-14T14:11:34.495Z,31.22
2017-08-14T14:14:01.908Z,31.20
2017-08-14T14:16:29.311Z,31.24
2017-08-14T14:18:56.713Z,31.21
2017-08-14T14:21:24.116Z,31.18
2017-08-14T14:23:51.512Z,31.09
2017-08-14T14:26:18.935Z,30.56
2017-08-14T14:28:46.335Z,30.84
2017-08-14T14:31:13.735Z,30.84
2017-08-14T14:33:41.140Z,30.69
2017-08-14T14:36:08.585Z,30.50
2017-08-14T14:38:35.995Z,30.18
2017-08-14T14:41:03.403Z,29.75
2017-08-14T14:43:30.823Z,29.72
2017-08-14T14:45:58.216Z,29.56
2017-08-14T14:48:25.623Z,29.63
2017-08-14T14:50:53.041Z,29.60
2017-08-14T14:53:20.435Z,29.61
2017-08-14T14:55:47.852Z,29.60
2017-08-14T14:58:15.257Z,29.99
2017-08-14T15:00:42.689Z,30.29
2017-08-14T15:03:10.088Z,30.61
2017-08-14T15:05:37.488Z,30.75
2017-08-14T15:08:04.887Z,30.70
2017-08-14T15:10:32.299Z,30.61
2017-08-14T15:12:59.699Z,30.55
2017-08-14T15:15:27.116Z,30.25
2017-08-14T15:17:54.523Z,30.26
2017-08-14T15:20:22.176Z,30.04
2017-08-14T15:22:49.587Z,29.95
2017-08-14T15:25:16.988Z,29.75
2017-08-14T15:27:44.428Z,29.45
2017-08-14T15:30:11.801Z,29.28
2017-08-14T15:32:39.195Z,29.07
2017-08-14T15:35:06.608Z,29.04
2017-08-14T15:37:34.006Z,28.98
2017-08-14T15:40:01.431Z,28.90
2017-08-14T15:42:28.831Z,28.85
2017-08-14T15:44:56.239Z,28.80
2017-08-14T15:47:23.639Z,28.69
2017-08-14T15:49:51.053Z,28.65
2017-08-14T15:52:18.495Z,28.61
2017-08-14T15:54:45.900Z,28.60
2017-08-14T15:57:13.283Z,28.59
2017-08-14T15:59:40.691Z,28.56
2017-08-14T16:02:08.087Z,28.54
2017-08-14T16:04:35.503Z,28.48
2017-08-14T16:07:02.899Z,28.43
2017-08-14T16:09:30.291Z,28.44
2017-08-14T16:11:57.709Z,28.44
2017-08-14T16:14:25.110Z,28.38
2017-08-14T16:16:52.530Z,28.29
2017-08-14T16:19:42.614Z,28.22
2017-08-14T16:22:10.034Z,28.12
2017-08-14T16:24:37.433Z,28.00
2017-08-14T16:27:04.839Z,27.87
2017-08-14T16:29:32.248Z,27.78
2017-08-14T16:31:59.654Z,27.70
2017-08-14T16:34:27.063Z,27.69
2017-08-14T16:36:54.468Z,27.78
2017-08-14T16:39:21.865Z,27.81
2017-08-14T16:41:49.271Z,27.93
2017-08-14T16:44:16.669Z,27.98
2017-08-14T16:46:44.077Z,28.01
2017-08-14T16:49:11.480Z,28.04
2017-08-14T16:51:38.897Z,28.07
2017-08-14T16:54:06.299Z,28.11
2017-08-14T16:56:33.704Z,28.14
2017-08-14T16:59:01.111Z,28.12
2017-08-14T17:01:28.525Z,28.08
2017-08-14T17:03:55.920Z,28.06
2017-08-14T17:06:23.316Z,28.00
2017-08-14T17:08:50.727Z,27.92
2017-08-14T17:11:18.132Z,27.84
2017-08-14T17:13:45.531Z,27.72
2017-08-14T17:16:12.947Z,27.62
2017-08-14T17:18:40.342Z,27.56
2017-08-14T17:21:07.771Z,27.53
2017-08-14T17:23:35.172Z,27.43
2017-08-14T17:26:02.570Z,27.35
2017-08-14T17:28:29.983Z,27.24
2017-08-14T17:30:57.374Z,27.16
2017-08-14T17:33:24.795Z,27.04
2017-08-14T17:35:52.195Z,26.97
2017-08-14T17:38:19.596Z,26.88
2017-08-14T17:40:47.052Z,26.78
2017-08-14T17:43:14.454Z,26.68
2017-08-14T17:45:41.855Z,26.58
2017-08-14T17:48:09.276Z,26.50
2017-08-14T17:50:36.683Z,26.45
2017-08-14T17:53:04.090Z,26.42
2017-08-14T17:55:31.502Z,26.40
2017-08-14T17:57:58.907Z,26.36
2017-08-14T18:00:26.309Z,26.28
2017-08-14T18:02:53.728Z,26.26
2017-08-14T18:05:21.128Z,26.21
2017-08-14T18:07:48.527Z,26.18
2017-08-14T18:10:15.943Z,26.13
2017-08-14T18:12:43.348Z,26.04
2017-08-14T18:15:10.743Z,25.93
2017-08-14T18:17:38.150Z,25.80
2017-08-14T18:20:05.548Z,25.71
2017-08-14T18:22:32.953Z,25.58
2017-08-14T18:25:00.370Z,25.49
2017-08-14T18:27:27.772Z,25.42
2017-08-14T18:29:55.176Z,25.31
2017-08-14T18:32:22.587Z,25.27
2017-08-14T18:34:49.988Z,25.19
2017-08-14T18:37:17.382Z,25.10
2017-08-14T18:39:44.808Z,25.03
2017-08-14T18:42:12.216Z,24.97
2017-08-14T18:44:39.616Z,24.87
2017-08-14T18:47:07.036Z,24.74
2017-08-14T18:49:34.435Z,24.74
2017-08-14T18:52:01.836Z,24.72
2017-08-14T18:54:29.245Z,24.71
2017-08-14T18:56:56.642Z,24.65
2017-08-14T18:59:24.043Z,24.61
2017-08-14T19:01:51.459Z,24.61
2017-08-14T19:04:18.859Z,24.66
2017-08-14T19:06:46.264Z,24.63
2017-08-14T19:09:15.307Z,24.75
2017-08-14T19:11:41.079Z,24.83
2017-08-14T19:14:08.485Z,24.87
2017-08-14T19:16:35.919Z,24.92
2017-08-14T19:19:03.324Z,24.80
2017-08-14T19:21:30.720Z,24.40
2017-08-14T19:23:58.135Z,24.15
2017-08-14T19:26:25.535Z,23.92
2017-08-14T19:28:52.940Z,23.81
2017-08-14T19:31:20.359Z,23.71
2017-08-14T19:33:47.760Z,23.52
2017-08-14T19:36:15.211Z,23.39
2017-08-14T19:38:42.625Z,23.39
2017-08-14T19:41:10.021Z,23.36
2017-08-14T19:43:37.420Z,23.23
2017-08-14T19:46:04.844Z,23.22
2017-08-14T19:48:32.291Z,23.03
2017-08-14T19:50:59.675Z,22.77
2017-08-14T19:53:27.099Z,22.68
2017-08-14T19:55:54.502Z,22.60
2017-08-14T19:58:21.907Z,22.45
2017-08-14T20:00:49.314Z,22.51
2017-08-14T20:03:16.720Z,22.35
2017-08-14T20:05:44.107Z,22.42
2017-08-14T20:08:11.523Z,22.41
2017-08-14T20:10:38.919Z,22.38
2017-08-14T20:13:06.323Z,22.36
2017-08-14T20:15:33.739Z,22.30
2017-08-14T20:18:01.139Z,22.27
2017-08-14T20:20:28.535Z,22.20
2017-08-14T20:22:55.950Z,22.14
2017-08-14T20:25:23.375Z,22.03
2017-08-14T20:27:50.772Z,22.04
2017-08-14T20:30:18.192Z,22.00
2017-08-14T20:32:45.599Z,21.97
2017-08-14T20:35:13.008Z,21.97
2017-08-14T20:37:40.448Z,21.86
2017-08-14T20:40:07.847Z,21.85
2017-08-14T20:42:35.246Z,21.75
2017-08-14T20:45:02.671Z,21.80
2017-08-14T20:47:30.071Z,21.79
2017-08-14T20:49:57.472Z,21.75
2017-08-14T20:52:24.888Z,21.77
2017-08-14T20:54:52.285Z,21.77
2017-08-14T20:57:19.698Z,21.68
2017-08-14T20:59:47.110Z,21.68
2017-08-14T21:02:14.524Z,21.58
2017-08-14T21:04:41.941Z,21.52
2017-08-14T21:07:09.583Z,21.61
2017-08-14T21:09:36.983Z,21.55
2017-08-14T21:12:04.391Z,21.52
2017-08-14T21:14:31.803Z,21.50
2017-08-14T21:16:59.212Z,21.45
2017-08-14T21:19:26.614Z,21.43
2017-08-14T21:21:54.031Z,21.41
2017-08-14T21:24:21.431Z,21.35
2017-08-14T21:26:48.831Z,21.31
2017-08-14T21:29:16.248Z,21.29
2017-08-14T21:31:43.639Z,21.30
2017-08-14T21:34:11.050Z,21.29
2017-08-14T21:36:38.453Z,21.29
2017-08-14T21:39:05.854Z,21.20
2017-08-14T21:41:33.255Z,21.17
2017-08-14T21:44:00.704Z,21.13
2017-08-14T21:46:28.102Z,21.09
2017-08-14T21:48:55.502Z,21.08
2017-08-14T21:51:22.916Z,21.05
2017-08-14T21:53:50.311Z,21.02
2017-08-14T21:56:17.706Z,20.97
2017-08-14T21:58:45.116Z,20.95
2017-08-14T22:01:12.515Z,20.92
2017-08-14T22:03:39.927Z,20.87
2017-08-14T22:06:07.344Z,20.82
2017-08-14T22:08:34.740Z,20.81
2017-08-14T22:11:02.139Z,20.75
2017-08-14T22:13:29.553Z,20.71
2017-08-14T22:15:56.951Z,20.70
2017-08-14T22:18:24.351Z,20.65
2017-08-14T22:20:51.766Z,20.64
2017-08-14T22:23:19.163Z,20.62
2017-08-14T22:25:46.564Z,20.60
2017-08-14T22:28:13.986Z,20.59
2017-08-14T22:30:41.391Z,20.58
2017-08-14T22:33:08.784Z,20.57
2017-08-14T22:35:36.199Z,20.55
2017-08-14T22:38:03.598Z,20.51
2017-08-14T22:40:30.995Z,20.47
2017-08-14T22:42:58.411Z,20.46
2017-08-14T22:45:25.816Z,20.43
2017-08-14T22:47:53.219Z,20.39
2017-08-14T22:50:20.635Z,20.38
2017-08-14T22:52:48.032Z,20.37
2017-08-14T22:55:15.436Z,20.34
2017-08-14T22:57:42.844Z,20.35
2017-08-14T23:00:10.250Z,20.33
2017-08-14T23:02:37.643Z,20.25
2017-08-14T23:05:05.064Z,20.26
2017-08-14T23:07:32.460Z,20.25
2017-08-14T23:09:59.862Z,20.21
2017-08-14T23:12:27.282Z,20.19
2017-08-14T23:14:54.684Z,20.18
2017-08-14T23:17:22.087Z,20.15
2017-08-14T23:19:49.500Z,20.14
2017-08-14T23:22:16.897Z,20.17
2017-08-14T23:24:44.295Z,20.11
2017-08-14T23:27:11.710Z,20.14
2017-08-14T23:29:39.103Z,20.13
2017-08-14T23:32:06.506Z,20.09
2017-08-14T23:34:33.919Z,20.11
2017-08-14T23:37:01.323Z,20.08
2017-08-14T23:39:28.724Z,20.04
2017-08-14T23:41:56.134Z,20.07
2017-08-14T23:44:23.534Z,20.13
2017-08-14T23:46:50.930Z,20.09
2017-08-14T23:49:18.341Z,20.07
2017-08-14T23:51:45.743Z,20.05
2017-08-14T23:54:13.139Z,20.02
2017-08-14T23:56:40.556Z,20.00
2017-08-14T23:59:07.961Z,19.96
